VIS870 YSSY-YMLT
Flight info
| Callsign | VIS870 |
|---|---|
| Flight time | N/A |
| Altitude | 40000 |
| Route | WOL2/34L WOL H20 OTKED J22 LT |
| Aircraft | B748/H-SDE3FGHIM1M2RWXY/LB1 |
Departure
| Time | N/A |
|---|---|
| Airport | Sydney Kingsford Smith International Airport (YSSY) |
Arrival
| Time | 2026-04-30 11:26 |
|---|---|
| Airport | Launceston Airport (YMLT) |
| Time | Latitude | Longitude | Altitude | Speed | Heading |
|---|---|---|---|---|---|
| 2026-04-30 11:23 | -41.65504 | 147.30353 | 3144 ft | 146 kts | 334° |
| 2026-04-30 11:23 | -41.63533 | 147.28887 | 2367 ft | 174 kts | 326° |
| 2026-04-30 11:24 | -41.62528 | 147.27999 | 2066 ft | 173 kts | 325° |
| 2026-04-30 11:24 | -41.61510 | 147.27026 | 1596 ft | 184 kts | 327° |
| 2026-04-30 11:24 | -41.60494 | 147.26164 | 1533 ft | 158 kts | 330° |
| 2026-04-30 11:25 | -41.58641 | 147.24627 | 1064 ft | 157 kts | 326° |
| 2026-04-30 11:25 | -41.57738 | 147.23831 | 930 ft | 152 kts | 332° |
| 2026-04-30 11:25 | -41.56002 | 147.22354 | 683 ft | 145 kts | 329° |
| 2026-04-30 11:26 | -41.54493 | 147.21087 | 572 ft | 62 kts | 329° |
| 2026-04-30 11:26 | -41.54387 | 147.20993 | 573 ft | 0 kts | 326° |
| 2026-04-30 11:26 | -41.54388 | 147.20994 | 573 ft | 1 kts | 326° |
| 2026-04-30 11:27 | -41.54377 | 147.20984 | 572 ft | 3 kts | 325° |
| 2026-04-30 11:27 | -41.54353 | 147.20962 | 572 ft | 5 kts | 325° |
| 2026-04-30 11:27 | -41.54322 | 147.20935 | 572 ft | 6 kts | 328° |
| 2026-04-30 11:27 | -41.54293 | 147.20900 | 572 ft | 4 kts | 303° |
| 2026-04-30 11:28 | -41.54292 | 147.20847 | 575 ft | 3 kts | 251° |
| 2026-04-30 11:28 | -41.54304 | 147.20817 | 576 ft | 5 kts | 236° |
| 2026-04-30 11:28 | -41.54327 | 147.20790 | 573 ft | 4 kts | 210° |
| 2026-04-30 11:29 | -41.54348 | 147.20785 | 574 ft | 2 kts | 179° |
| 2026-04-30 11:29 | -41.54363 | 147.20787 | 571 ft | 2 kts | 177° |
| 2026-04-30 11:29 | -41.54378 | 147.20779 | 573 ft | 1 kts | 211° |
| 2026-04-30 11:30 | -41.54386 | 147.20765 | 569 ft | 1 kts | 238° |
| 2026-04-30 11:30 | -41.54388 | 147.20758 | 570 ft | 1 kts | 250° |
| 2026-04-30 11:30 | -41.54389 | 147.20750 | 569 ft | 1 kts | 261° |
| 2026-04-30 11:31 | -41.54387 | 147.20736 | 566 ft | 2 kts | 283° |
| 2026-04-30 11:31 | -41.54380 | 147.20723 | 568 ft | 1 kts | 307° |
| 2026-04-30 11:31 | -41.54376 | 147.20718 | 573 ft | 1 kts | 319° |
| 2026-04-30 11:31 | -41.54375 | 147.20717 | 573 ft | 0 kts | 320° |